sensor_id;sensor_type;location;lat;lon;timestamp;temperature;humidity
60309;DHT22;50313;52.894;6.492;2022-07-06T00:00:33;13.20;99.90
60309;DHT22;50313;52.894;6.492;2022-07-06T00:02:59;13.20;99.90
60309;DHT22;50313;52.894;6.492;2022-07-06T00:05:25;13.20;99.90
60309;DHT22;50313;52.894;6.492;2022-07-06T00:07:51;13.20;99.90
60309;DHT22;50313;52.894;6.492;2022-07-06T00:10:17;13.30;99.90
60309;DHT22;50313;52.894;6.492;2022-07-06T00:12:42;13.30;99.90
60309;DHT22;50313;52.894;6.492;2022-07-06T00:15:08;13.30;99.90
60309;DHT22;50313;52.894;6.492;2022-07-06T00:17:34;13.20;99.90
60309;DHT22;50313;52.894;6.492;2022-07-06T00:20:00;13.20;99.90
60309;DHT22;50313;52.894;6.492;2022-07-06T00:22:26;13.20;99.90
60309;DHT22;50313;52.894;6.492;2022-07-06T00:24:52;13.20;99.90
60309;DHT22;50313;52.894;6.492;2022-07-06T00:27:17;13.30;99.90
60309;DHT22;50313;52.894;6.492;2022-07-06T00:29:43;13.30;99.90
60309;DHT22;50313;52.894;6.492;2022-07-06T00:32:11;13.30;99.90
60309;DHT22;50313;52.894;6.492;2022-07-06T00:34:37;13.30;99.90
60309;DHT22;50313;52.894;6.492;2022-07-06T00:37:05;13.30;99.90
60309;DHT22;50313;52.894;6.492;2022-07-06T00:39:32;13.30;99.90
60309;DHT22;50313;52.894;6.492;2022-07-06T00:41:58;13.30;99.90
60309;DHT22;50313;52.894;6.492;2022-07-06T00:44:24;13.30;99.90
60309;DHT22;50313;52.894;6.492;2022-07-06T00:46:50;13.30;99.90
60309;DHT22;50313;52.894;6.492;2022-07-06T00:49:16;13.30;99.90
60309;DHT22;50313;52.894;6.492;2022-07-06T00:52:05;13.30;99.90
60309;DHT22;50313;52.894;6.492;2022-07-06T00:54:32;13.30;99.90
60309;DHT22;50313;52.894;6.492;2022-07-06T00:56:58;13.30;99.90
60309;DHT22;50313;52.894;6.492;2022-07-06T00:59:24;13.30;99.90
60309;DHT22;50313;52.894;6.492;2022-07-06T01:01:50;13.30;99.90
60309;DHT22;50313;52.894;6.492;2022-07-06T01:04:16;13.30;99.90
60309;DHT22;50313;52.894;6.492;2022-07-06T01:06:44;13.30;99.90
60309;DHT22;50313;52.894;6.492;2022-07-06T01:09:10;13.30;99.90
60309;DHT22;50313;52.894;6.492;2022-07-06T01:11:36;13.30;99.90
60309;DHT22;50313;52.894;6.492;2022-07-06T01:14:01;13.30;99.90
60309;DHT22;50313;52.894;6.492;2022-07-06T01:16:27;13.30;99.90
60309;DHT22;50313;52.894;6.492;2022-07-06T01:18:53;13.30;99.90
60309;DHT22;50313;52.894;6.492;2022-07-06T01:21:19;13.30;99.90
60309;DHT22;50313;52.894;6.492;2022-07-06T01:23:46;13.30;99.90
60309;DHT22;50313;52.894;6.492;2022-07-06T01:26:14;13.30;99.90
60309;DHT22;50313;52.894;6.492;2022-07-06T01:28:41;13.20;99.90
60309;DHT22;50313;52.894;6.492;2022-07-06T01:31:24;13.30;99.90
60309;DHT22;50313;52.894;6.492;2022-07-06T01:33:53;13.20;99.90
60309;DHT22;50313;52.894;6.492;2022-07-06T01:36:19;13.20;99.90
60309;DHT22;50313;52.894;6.492;2022-07-06T01:38:50;13.20;99.90
60309;DHT22;50313;52.894;6.492;2022-07-06T01:41:16;13.20;99.90
60309;DHT22;50313;52.894;6.492;2022-07-06T01:43:42;13.20;99.90
60309;DHT22;50313;52.894;6.492;2022-07-06T01:46:08;13.10;99.90
60309;DHT22;50313;52.894;6.492;2022-07-06T01:48:34;13.10;99.90
60309;DHT22;50313;52.894;6.492;2022-07-06T01:51:00;13.10;99.90
60309;DHT22;50313;52.894;6.492;2022-07-06T01:53:26;13.20;99.90
60309;DHT22;50313;52.894;6.492;2022-07-06T01:55:51;13.20;99.90
60309;DHT22;50313;52.894;6.492;2022-07-06T01:58:17;13.10;99.90
60309;DHT22;50313;52.894;6.492;2022-07-06T02:00:43;13.10;99.90
60309;DHT22;50313;52.894;6.492;2022-07-06T02:03:09;13.10;99.90
60309;DHT22;50313;52.894;6.492;2022-07-06T02:05:34;13.20;99.90
60309;DHT22;50313;52.894;6.492;2022-07-06T02:08:00;13.20;99.90
60309;DHT22;50313;52.894;6.492;2022-07-06T02:10:26;13.20;99.90
60309;DHT22;50313;52.894;6.492;2022-07-06T02:12:52;13.20;99.90
60309;DHT22;50313;52.894;6.492;2022-07-06T02:15:17;13.20;99.90
60309;DHT22;50313;52.894;6.492;2022-07-06T02:17:43;13.20;99.90
60309;DHT22;50313;52.894;6.492;2022-07-06T02:20:09;13.20;99.90
60309;DHT22;50313;52.894;6.492;2022-07-06T02:22:35;13.20;99.90
60309;DHT22;50313;52.894;6.492;2022-07-06T02:25:00;13.20;99.90
60309;DHT22;50313;52.894;6.492;2022-07-06T02:27:26;13.20;99.90
60309;DHT22;50313;52.894;6.492;2022-07-06T02:29:52;13.20;99.90
60309;DHT22;50313;52.894;6.492;2022-07-06T02:32:18;13.10;99.90
60309;DHT22;50313;52.894;6.492;2022-07-06T02:34:43;13.10;99.90
60309;DHT22;50313;52.894;6.492;2022-07-06T02:37:09;13.10;99.90
60309;DHT22;50313;52.894;6.492;2022-07-06T02:39:35;13.10;99.90
60309;DHT22;50313;52.894;6.492;2022-07-06T02:42:01;13.10;99.90
60309;DHT22;50313;52.894;6.492;2022-07-06T02:44:26;13.10;99.90
60309;DHT22;50313;52.894;6.492;2022-07-06T02:46:52;13.20;99.90
60309;DHT22;50313;52.894;6.492;2022-07-06T02:49:18;13.20;99.90
60309;DHT22;50313;52.894;6.492;2022-07-06T02:51:43;13.20;99.90
60309;DHT22;50313;52.894;6.492;2022-07-06T02:54:09;13.20;99.90
60309;DHT22;50313;52.894;6.492;2022-07-06T02:56:35;13.20;99.90
60309;DHT22;50313;52.894;6.492;2022-07-06T02:59:01;13.20;99.90
60309;DHT22;50313;52.894;6.492;2022-07-06T03:01:26;13.20;99.90
60309;DHT22;50313;52.894;6.492;2022-07-06T03:03:52;13.10;99.90
60309;DHT22;50313;52.894;6.492;2022-07-06T03:06:18;13.20;99.90
60309;DHT22;50313;52.894;6.492;2022-07-06T03:08:43;13.20;99.90
60309;DHT22;50313;52.894;6.492;2022-07-06T03:11:09;13.20;99.90
60309;DHT22;50313;52.894;6.492;2022-07-06T03:13:35;13.20;99.90
60309;DHT22;50313;52.894;6.492;2022-07-06T03:16:01;13.30;99.90
60309;DHT22;50313;52.894;6.492;2022-07-06T03:18:27;13.30;99.90
60309;DHT22;50313;52.894;6.492;2022-07-06T03:20:53;13.30;99.90
60309;DHT22;50313;52.894;6.492;2022-07-06T03:23:19;13.30;99.90
60309;DHT22;50313;52.894;6.492;2022-07-06T03:25:45;13.30;99.90
60309;DHT22;50313;52.894;6.492;2022-07-06T03:28:11;13.30;99.90
60309;DHT22;50313;52.894;6.492;2022-07-06T03:30:37;13.30;99.90
60309;DHT22;50313;52.894;6.492;2022-07-06T03:33:03;13.30;99.90
60309;DHT22;50313;52.894;6.492;2022-07-06T03:35:29;13.30;99.90
60309;DHT22;50313;52.894;6.492;2022-07-06T03:37:55;13.30;99.90
60309;DHT22;50313;52.894;6.492;2022-07-06T03:40:21;13.30;99.90
60309;DHT22;50313;52.894;6.492;2022-07-06T03:42:47;13.40;99.90
60309;DHT22;50313;52.894;6.492;2022-07-06T03:45:23;13.40;99.90
60309;DHT22;50313;52.894;6.492;2022-07-06T03:47:54;13.40;99.90
60309;DHT22;50313;52.894;6.492;2022-07-06T03:50:23;13.40;99.90
60309;DHT22;50313;52.894;6.492;2022-07-06T03:52:49;13.40;99.90
60309;DHT22;50313;52.894;6.492;2022-07-06T03:55:17;13.40;99.90
60309;DHT22;50313;52.894;6.492;2022-07-06T03:57:43;13.50;99.90
60309;DHT22;50313;52.894;6.492;2022-07-06T04:00:09;13.50;99.90
60309;DHT22;50313;52.894;6.492;2022-07-06T04:02:35;13.50;99.90
60309;DHT22;50313;52.894;6.492;2022-07-06T04:05:01;13.60;99.90
60309;DHT22;50313;52.894;6.492;2022-07-06T04:07:27;13.60;99.90
60309;DHT22;50313;52.894;6.492;2022-07-06T04:09:52;13.60;99.90
60309;DHT22;50313;52.894;6.492;2022-07-06T04:12:18;13.60;99.90
60309;DHT22;50313;52.894;6.492;2022-07-06T04:14:44;13.70;99.90
60309;DHT22;50313;52.894;6.492;2022-07-06T04:17:10;13.70;99.90
60309;DHT22;50313;52.894;6.492;2022-07-06T04:19:56;13.70;99.90
60309;DHT22;50313;52.894;6.492;2022-07-06T04:22:21;13.70;99.90
60309;DHT22;50313;52.894;6.492;2022-07-06T04:24:47;13.70;99.90
60309;DHT22;50313;52.894;6.492;2022-07-06T04:27:13;13.70;99.90
60309;DHT22;50313;52.894;6.492;2022-07-06T04:29:38;13.70;99.90
60309;DHT22;50313;52.894;6.492;2022-07-06T04:32:04;13.70;99.90
60309;DHT22;50313;52.894;6.492;2022-07-06T04:34:30;13.60;99.90
60309;DHT22;50313;52.894;6.492;2022-07-06T04:36:56;13.60;99.90
60309;DHT22;50313;52.894;6.492;2022-07-06T04:39:21;13.60;99.90
60309;DHT22;50313;52.894;6.492;2022-07-06T04:41:47;13.50;99.90
60309;DHT22;50313;52.894;6.492;2022-07-06T04:44:13;13.60;99.90
60309;DHT22;50313;52.894;6.492;2022-07-06T04:46:38;13.50;99.90
60309;DHT22;50313;52.894;6.492;2022-07-06T04:49:04;13.50;99.90
60309;DHT22;50313;52.894;6.492;2022-07-06T04:51:30;13.50;99.90
60309;DHT22;50313;52.894;6.492;2022-07-06T04:53:55;13.50;99.90
60309;DHT22;50313;52.894;6.492;2022-07-06T04:56:21;13.50;99.90
60309;DHT22;50313;52.894;6.492;2022-07-06T04:58:47;13.50;99.90
60309;DHT22;50313;52.894;6.492;2022-07-06T05:01:13;13.50;99.90
60309;DHT22;50313;52.894;6.492;2022-07-06T05:03:38;13.60;99.90
60309;DHT22;50313;52.894;6.492;2022-07-06T05:06:06;13.60;99.90
60309;DHT22;50313;52.894;6.492;2022-07-06T05:08:33;13.60;99.90
60309;DHT22;50313;52.894;6.492;2022-07-06T05:10:59;13.60;99.90
60309;DHT22;50313;52.894;6.492;2022-07-06T05:13:25;13.70;99.90
60309;DHT22;50313;52.894;6.492;2022-07-06T05:15:51;13.70;99.90
60309;DHT22;50313;52.894;6.492;2022-07-06T05:18:17;13.90;99.90
60309;DHT22;50313;52.894;6.492;2022-07-06T05:20:43;14.00;99.90
60309;DHT22;50313;52.894;6.492;2022-07-06T05:23:08;14.20;99.90
60309;DHT22;50313;52.894;6.492;2022-07-06T05:25:34;14.40;99.90
60309;DHT22;50313;52.894;6.492;2022-07-06T05:28:01;14.60;99.90
60309;DHT22;50313;52.894;6.492;2022-07-06T05:30:27;14.80;99.90
60309;DHT22;50313;52.894;6.492;2022-07-06T05:32:52;14.90;99.90
60309;DHT22;50313;52.894;6.492;2022-07-06T05:35:18;15.00;99.90
60309;DHT22;50313;52.894;6.492;2022-07-06T05:37:44;15.00;99.90
60309;DHT22;50313;52.894;6.492;2022-07-06T05:40:10;15.00;99.90
60309;DHT22;50313;52.894;6.492;2022-07-06T05:42:36;15.00;99.90
60309;DHT22;50313;52.894;6.492;2022-07-06T05:45:02;15.00;99.90
60309;DHT22;50313;52.894;6.492;2022-07-06T05:47:30;15.00;99.90
60309;DHT22;50313;52.894;6.492;2022-07-06T05:50:14;15.00;99.90
60309;DHT22;50313;52.894;6.492;2022-07-06T05:52:50;15.00;99.90
60309;DHT22;50313;52.894;6.492;2022-07-06T05:55:20;15.10;99.90
60309;DHT22;50313;52.894;6.492;2022-07-06T05:57:45;15.10;99.90
60309;DHT22;50313;52.894;6.492;2022-07-06T06:00:12;15.20;99.90
60309;DHT22;50313;52.894;6.492;2022-07-06T06:02:41;15.30;99.90
60309;DHT22;50313;52.894;6.492;2022-07-06T06:05:08;15.30;99.90
60309;DHT22;50313;52.894;6.492;2022-07-06T06:07:38;15.30;99.90
60309;DHT22;50313;52.894;6.492;2022-07-06T06:10:06;15.30;99.90
60309;DHT22;50313;52.894;6.492;2022-07-06T06:12:32;15.30;99.90
60309;DHT22;50313;52.894;6.492;2022-07-06T06:14:58;15.20;99.90
60309;DHT22;50313;52.894;6.492;2022-07-06T06:17:24;15.20;99.90
60309;DHT22;50313;52.894;6.492;2022-07-06T06:19:49;15.10;99.90
60309;DHT22;50313;52.894;6.492;2022-07-06T06:22:15;15.10;99.90
60309;DHT22;50313;52.894;6.492;2022-07-06T06:24:41;15.10;99.90
60309;DHT22;50313;52.894;6.492;2022-07-06T06:27:07;15.10;99.90
60309;DHT22;50313;52.894;6.492;2022-07-06T06:29:32;15.20;99.90
60309;DHT22;50313;52.894;6.492;2022-07-06T06:31:58;15.30;99.90
60309;DHT22;50313;52.894;6.492;2022-07-06T06:34:24;15.30;99.90
60309;DHT22;50313;52.894;6.492;2022-07-06T06:36:50;15.40;99.90
60309;DHT22;50313;52.894;6.492;2022-07-06T06:39:15;15.50;99.90
60309;DHT22;50313;52.894;6.492;2022-07-06T06:41:41;15.50;99.90
60309;DHT22;50313;52.894;6.492;2022-07-06T06:44:07;15.60;99.90
60309;DHT22;50313;52.894;6.492;2022-07-06T06:46:33;15.60;99.90
60309;DHT22;50313;52.894;6.492;2022-07-06T06:48:59;15.60;99.90
60309;DHT22;50313;52.894;6.492;2022-07-06T06:51:25;15.50;99.90
60309;DHT22;50313;52.894;6.492;2022-07-06T06:53:50;15.60;99.90
60309;DHT22;50313;52.894;6.492;2022-07-06T06:56:16;15.50;99.90
60309;DHT22;50313;52.894;6.492;2022-07-06T06:58:42;15.50;99.90
60309;DHT22;50313;52.894;6.492;2022-07-06T07:01:08;15.50;99.90
60309;DHT22;50313;52.894;6.492;2022-07-06T07:03:35;15.50;99.90
60309;DHT22;50313;52.894;6.492;2022-07-06T07:06:03;15.40;99.90
60309;DHT22;50313;52.894;6.492;2022-07-06T07:08:28;15.30;99.90
60309;DHT22;50313;52.894;6.492;2022-07-06T07:10:54;15.30;99.90
60309;DHT22;50313;52.894;6.492;2022-07-06T07:13:20;15.40;99.90
60309;DHT22;50313;52.894;6.492;2022-07-06T07:15:45;15.60;99.90
60309;DHT22;50313;52.894;6.492;2022-07-06T07:18:11;15.70;99.90
60309;DHT22;50313;52.894;6.492;2022-07-06T07:20:37;15.70;99.90
60309;DHT22;50313;52.894;6.492;2022-07-06T07:23:03;15.80;99.90
60309;DHT22;50313;52.894;6.492;2022-07-06T07:25:28;16.00;99.90
60309;DHT22;50313;52.894;6.492;2022-07-06T07:27:54;16.10;99.90
60309;DHT22;50313;52.894;6.492;2022-07-06T07:30:20;16.50;99.90
60309;DHT22;50313;52.894;6.492;2022-07-06T07:32:46;16.70;99.90
60309;DHT22;50313;52.894;6.492;2022-07-06T07:35:12;16.90;99.90
60309;DHT22;50313;52.894;6.492;2022-07-06T07:37:38;17.00;99.90
60309;DHT22;50313;52.894;6.492;2022-07-06T07:40:04;17.20;99.90
60309;DHT22;50313;52.894;6.492;2022-07-06T07:42:31;17.20;99.90
60309;DHT22;50313;52.894;6.492;2022-07-06T07:44:57;17.30;99.90
60309;DHT22;50313;52.894;6.492;2022-07-06T07:47:22;17.50;99.90
60309;DHT22;50313;52.894;6.492;2022-07-06T07:49:48;17.70;99.90
60309;DHT22;50313;52.894;6.492;2022-07-06T07:52:14;18.00;99.90
60309;DHT22;50313;52.894;6.492;2022-07-06T07:54:40;18.20;99.90
60309;DHT22;50313;52.894;6.492;2022-07-06T07:57:05;18.20;99.90
60309;DHT22;50313;52.894;6.492;2022-07-06T07:59:32;18.50;99.90
60309;DHT22;50313;52.894;6.492;2022-07-06T08:01:57;18.40;99.90
60309;DHT22;50313;52.894;6.492;2022-07-06T08:04:23;18.10;99.90
60309;DHT22;50313;52.894;6.492;2022-07-06T08:06:49;18.10;99.90
60309;DHT22;50313;52.894;6.492;2022-07-06T08:09:15;18.10;99.90
60309;DHT22;50313;52.894;6.492;2022-07-06T08:11:42;17.90;99.90
60309;DHT22;50313;52.894;6.492;2022-07-06T08:14:08;18.10;99.90
60309;DHT22;50313;52.894;6.492;2022-07-06T08:16:34;18.00;99.90
60309;DHT22;50313;52.894;6.492;2022-07-06T08:19:00;18.10;99.90
60309;DHT22;50313;52.894;6.492;2022-07-06T08:21:26;18.40;99.90
60309;DHT22;50313;52.894;6.492;2022-07-06T08:23:53;18.40;99.90
60309;DHT22;50313;52.894;6.492;2022-07-06T08:26:19;18.50;99.90
60309;DHT22;50313;52.894;6.492;2022-07-06T08:28:45;18.30;99.90
60309;DHT22;50313;52.894;6.492;2022-07-06T08:31:11;18.00;99.90
60309;DHT22;50313;52.894;6.492;2022-07-06T08:33:37;17.70;99.90
60309;DHT22;50313;52.894;6.492;2022-07-06T08:36:02;17.60;99.90
60309;DHT22;50313;52.894;6.492;2022-07-06T08:38:28;17.50;99.90
60309;DHT22;50313;52.894;6.492;2022-07-06T08:40:54;17.50;99.90
60309;DHT22;50313;52.894;6.492;2022-07-06T08:43:20;17.40;99.90
60309;DHT22;50313;52.894;6.492;2022-07-06T08:45:50;17.50;99.90
60309;DHT22;50313;52.894;6.492;2022-07-06T08:48:19;17.60;99.90
60309;DHT22;50313;52.894;6.492;2022-07-06T08:50:48;17.70;99.90
60309;DHT22;50313;52.894;6.492;2022-07-06T08:53:17;17.70;99.90
60309;DHT22;50313;52.894;6.492;2022-07-06T08:55:43;17.80;99.90
60309;DHT22;50313;52.894;6.492;2022-07-06T08:58:09;18.10;99.90
60309;DHT22;50313;52.894;6.492;2022-07-06T09:00:35;18.30;99.90
60309;DHT22;50313;52.894;6.492;2022-07-06T09:03:01;18.80;99.90
60309;DHT22;50313;52.894;6.492;2022-07-06T09:05:28;19.00;99.90
60309;DHT22;50313;52.894;6.492;2022-07-06T09:07:55;19.00;98.00
60309;DHT22;50313;52.894;6.492;2022-07-06T09:10:22;19.20;98.00
60309;DHT22;50313;52.894;6.492;2022-07-06T09:12:48;19.10;96.00
60309;DHT22;50313;52.894;6.492;2022-07-06T09:15:14;19.30;97.10
60309;DHT22;50313;52.894;6.492;2022-07-06T09:17:42;19.30;97.70
60309;DHT22;50313;52.894;6.492;2022-07-06T09:20:09;19.30;96.60
60309;DHT22;50313;52.894;6.492;2022-07-06T09:22:36;19.30;96.70
60309;DHT22;50313;52.894;6.492;2022-07-06T09:25:13;19.30;95.60
60309;DHT22;50313;52.894;6.492;2022-07-06T09:27:40;19.60;95.80
60309;DHT22;50313;52.894;6.492;2022-07-06T09:30:08;19.80;95.40
60309;DHT22;50313;52.894;6.492;2022-07-06T09:32:46;19.90;94.60
60309;DHT22;50313;52.894;6.492;2022-07-06T09:35:35;19.60;95.10
60309;DHT22;50313;52.894;6.492;2022-07-06T09:38:06;19.40;95.00
60309;DHT22;50313;52.894;6.492;2022-07-06T09:40:40;19.60;94.80
60309;DHT22;50313;52.894;6.492;2022-07-06T09:43:18;19.50;95.70
60309;DHT22;50313;52.894;6.492;2022-07-06T09:45:46;19.80;95.90
60309;DHT22;50313;52.894;6.492;2022-07-06T09:48:24;19.80;95.80
60309;DHT22;50313;52.894;6.492;2022-07-06T09:50:53;20.10;95.40
60309;DHT22;50313;52.894;6.492;2022-07-06T09:53:20;20.00;94.90
60309;DHT22;50313;52.894;6.492;2022-07-06T09:55:49;20.20;94.70
60309;DHT22;50313;52.894;6.492;2022-07-06T09:58:17;20.20;94.90
60309;DHT22;50313;52.894;6.492;2022-07-06T10:00:46;20.50;96.30
60309;DHT22;50313;52.894;6.492;2022-07-06T10:03:15;20.40;94.80
60309;DHT22;50313;52.894;6.492;2022-07-06T10:05:43;20.00;93.80
60309;DHT22;50313;52.894;6.492;2022-07-06T10:08:11;19.80;94.20
60309;DHT22;50313;52.894;6.492;2022-07-06T10:10:39;19.70;95.30
60309;DHT22;50313;52.894;6.492;2022-07-06T10:13:06;19.60;94.30
60309;DHT22;50313;52.894;6.492;2022-07-06T10:15:34;19.70;94.80
60309;DHT22;50313;52.894;6.492;2022-07-06T10:18:02;19.90;95.10
60309;DHT22;50313;52.894;6.492;2022-07-06T10:20:31;20.50;94.70
60309;DHT22;50313;52.894;6.492;2022-07-06T10:22:59;20.70;93.70
60309;DHT22;50313;52.894;6.492;2022-07-06T10:25:25;20.80;94.90
60309;DHT22;50313;52.894;6.492;2022-07-06T10:27:52;20.50;94.80
60309;DHT22;50313;52.894;6.492;2022-07-06T10:30:18;20.20;94.80
60309;DHT22;50313;52.894;6.492;2022-07-06T10:32:47;20.00;94.40
60309;DHT22;50313;52.894;6.492;2022-07-06T10:35:14;20.30;95.30
60309;DHT22;50313;52.894;6.492;2022-07-06T10:37:40;20.50;96.00
60309;DHT22;50313;52.894;6.492;2022-07-06T10:40:07;20.40;95.70
60309;DHT22;50313;52.894;6.492;2022-07-06T10:42:58;20.50;96.80
60309;DHT22;50313;52.894;6.492;2022-07-06T10:50:38;21.10;96.40
60309;DHT22;50313;52.894;6.492;2022-07-06T10:53:11;21.00;94.70
60309;DHT22;50313;52.894;6.492;2022-07-06T10:55:38;21.20;92.90
60309;DHT22;50313;52.894;6.492;2022-07-06T10:58:05;21.00;93.70
60309;DHT22;50313;52.894;6.492;2022-07-06T11:00:51;20.90;93.70
60309;DHT22;50313;52.894;6.492;2022-07-06T11:06:36;20.30;95.00
60309;DHT22;50313;52.894;6.492;2022-07-06T11:19:10;20.50;93.60
60309;DHT22;50313;52.894;6.492;2022-07-06T11:24:09;20.20;94.10
60309;DHT22;50313;52.894;6.492;2022-07-06T11:26:36;20.20;94.30
60309;DHT22;50313;52.894;6.492;2022-07-06T11:29:06;20.40;94.60
60309;DHT22;50313;52.894;6.492;2022-07-06T11:31:38;20.70;96.60
60309;DHT22;50313;52.894;6.492;2022-07-06T11:34:09;21.20;94.40
60309;DHT22;50313;52.894;6.492;2022-07-06T11:36:37;20.70;93.00
60309;DHT22;50313;52.894;6.492;2022-07-06T11:39:04;20.60;92.80
60309;DHT22;50313;52.894;6.492;2022-07-06T11:41:33;20.30;93.90
60309;DHT22;50313;52.894;6.492;2022-07-06T11:44:00;20.10;94.90
60309;DHT22;50313;52.894;6.492;2022-07-06T11:46:30;20.70;96.20
60309;DHT22;50313;52.894;6.492;2022-07-06T11:48:58;21.00;95.40
60309;DHT22;50313;52.894;6.492;2022-07-06T11:51:26;20.80;95.90
60309;DHT22;50313;52.894;6.492;2022-07-06T11:53:56;21.20;94.60
60309;DHT22;50313;52.894;6.492;2022-07-06T11:56:23;21.10;93.10
60309;DHT22;50313;52.894;6.492;2022-07-06T11:58:53;20.90;93.30
60309;DHT22;50313;52.894;6.492;2022-07-06T12:01:19;21.20;94.70
60309;DHT22;50313;52.894;6.492;2022-07-06T12:03:46;21.40;93.80
60309;DHT22;50313;52.894;6.492;2022-07-06T12:06:23;21.60;93.70
60309;DHT22;50313;52.894;6.492;2022-07-06T12:11:18;22.00;94.10
60309;DHT22;50313;52.894;6.492;2022-07-06T12:13:44;21.60;91.30
60309;DHT22;50313;52.894;6.492;2022-07-06T12:16:13;21.40;91.50
60309;DHT22;50313;52.894;6.492;2022-07-06T12:18:42;21.20;92.40
60309;DHT22;50313;52.894;6.492;2022-07-06T12:21:10;21.50;93.70
60309;DHT22;50313;52.894;6.492;2022-07-06T12:23:46;21.50;93.50
60309;DHT22;50313;52.894;6.492;2022-07-06T12:26:14;21.40;91.60
60309;DHT22;50313;52.894;6.492;2022-07-06T12:28:40;21.20;92.20
60309;DHT22;50313;52.894;6.492;2022-07-06T12:31:06;21.70;93.00
60309;DHT22;50313;52.894;6.492;2022-07-06T12:33:32;21.70;92.30
60309;DHT22;50313;52.894;6.492;2022-07-06T12:36:09;21.80;91.50
60309;DHT22;50313;52.894;6.492;2022-07-06T12:38:35;21.30;91.40
60309;DHT22;50313;52.894;6.492;2022-07-06T12:41:00;21.40;92.60
60309;DHT22;50313;52.894;6.492;2022-07-06T12:43:39;21.80;91.60
60309;DHT22;50313;52.894;6.492;2022-07-06T12:47:02;22.50;92.50
60309;DHT22;50313;52.894;6.492;2022-07-06T12:49:21;22.50;91.20
60309;DHT22;50313;52.894;6.492;2022-07-06T12:54:37;22.60;91.50
60309;DHT22;50313;52.894;6.492;2022-07-06T12:57:08;22.60;90.30
60309;DHT22;50313;52.894;6.492;2022-07-06T12:59:48;22.30;89.50
60309;DHT22;50313;52.894;6.492;2022-07-06T13:02:25;22.30;90.30
60309;DHT22;50313;52.894;6.492;2022-07-06T13:05:02;22.00;88.60
60309;DHT22;50313;52.894;6.492;2022-07-06T13:07:29;21.90;90.30
60309;DHT22;50313;52.894;6.492;2022-07-06T13:09:58;21.70;89.60
60309;DHT22;50313;52.894;6.492;2022-07-06T13:12:24;21.40;89.60
60309;DHT22;50313;52.894;6.492;2022-07-06T13:14:50;20.90;89.10
60309;DHT22;50313;52.894;6.492;2022-07-06T13:17:17;20.70;90.20
60309;DHT22;50313;52.894;6.492;2022-07-06T13:19:43;20.70;90.10
60309;DHT22;50313;52.894;6.492;2022-07-06T13:22:09;20.70;90.90
60309;DHT22;50313;52.894;6.492;2022-07-06T13:24:35;20.80;90.90
60309;DHT22;50313;52.894;6.492;2022-07-06T13:27:01;20.80;90.60
60309;DHT22;50313;52.894;6.492;2022-07-06T13:29:27;20.80;91.00
60309;DHT22;50313;52.894;6.492;2022-07-06T13:31:53;20.80;90.70
60309;DHT22;50313;52.894;6.492;2022-07-06T13:34:19;20.70;91.10
60309;DHT22;50313;52.894;6.492;2022-07-06T13:36:45;21.10;91.00
60309;DHT22;50313;52.894;6.492;2022-07-06T13:39:12;21.10;90.90
60309;DHT22;50313;52.894;6.492;2022-07-06T13:41:37;21.20;90.90
60309;DHT22;50313;52.894;6.492;2022-07-06T13:44:03;21.30;89.90
60309;DHT22;50313;52.894;6.492;2022-07-06T13:46:30;21.40;90.10
60309;DHT22;50313;52.894;6.492;2022-07-06T13:48:57;21.40;90.00
60309;DHT22;50313;52.894;6.492;2022-07-06T13:51:25;21.40;89.80
60309;DHT22;50313;52.894;6.492;2022-07-06T13:53:53;21.20;90.10
60309;DHT22;50313;52.894;6.492;2022-07-06T13:56:19;21.10;90.00
60309;DHT22;50313;52.894;6.492;2022-07-06T13:58:45;21.10;90.80
60309;DHT22;50313;52.894;6.492;2022-07-06T14:01:11;21.10;91.20
60309;DHT22;50313;52.894;6.492;2022-07-06T14:03:37;20.90;91.00
60309;DHT22;50313;52.894;6.492;2022-07-06T14:06:04;20.90;91.40
60309;DHT22;50313;52.894;6.492;2022-07-06T14:08:31;20.80;91.50
60309;DHT22;50313;52.894;6.492;2022-07-06T14:10:58;20.70;91.30
60309;DHT22;50313;52.894;6.492;2022-07-06T14:13:24;20.30;91.60
60309;DHT22;50313;52.894;6.492;2022-07-06T14:15:49;20.30;91.80
60309;DHT22;50313;52.894;6.492;2022-07-06T14:18:15;20.20;92.00
60309;DHT22;50313;52.894;6.492;2022-07-06T14:20:47;20.20;92.50
60309;DHT22;50313;52.894;6.492;2022-07-06T14:23:13;20.10;92.10
60309;DHT22;50313;52.894;6.492;2022-07-06T14:25:40;20.10;92.40
60309;DHT22;50313;52.894;6.492;2022-07-06T14:28:07;20.00;92.40
60309;DHT22;50313;52.894;6.492;2022-07-06T14:30:34;19.80;92.60
60309;DHT22;50313;52.894;6.492;2022-07-06T14:33:05;19.80;92.60
60309;DHT22;50313;52.894;6.492;2022-07-06T14:35:40;19.60;92.50
60309;DHT22;50313;52.894;6.492;2022-07-06T14:38:06;19.70;93.50
60309;DHT22;50313;52.894;6.492;2022-07-06T14:40:33;19.60;93.10
60309;DHT22;50313;52.894;6.492;2022-07-06T14:43:00;19.60;93.20
60309;DHT22;50313;52.894;6.492;2022-07-06T14:45:26;19.60;94.10
60309;DHT22;50313;52.894;6.492;2022-07-06T14:47:52;19.60;94.40
60309;DHT22;50313;52.894;6.492;2022-07-06T14:50:18;19.70;93.80
60309;DHT22;50313;52.894;6.492;2022-07-06T14:52:44;19.70;93.90
60309;DHT22;50313;52.894;6.492;2022-07-06T14:55:10;19.70;93.80
60309;DHT22;50313;52.894;6.492;2022-07-06T14:57:36;19.80;93.80
60309;DHT22;50313;52.894;6.492;2022-07-06T15:00:03;19.70;94.30
60309;DHT22;50313;52.894;6.492;2022-07-06T15:02:29;19.70;94.10
60309;DHT22;50313;52.894;6.492;2022-07-06T15:04:55;19.60;94.50
60309;DHT22;50313;52.894;6.492;2022-07-06T15:07:21;19.50;94.90
60309;DHT22;50313;52.894;6.492;2022-07-06T15:09:47;19.50;94.80
60309;DHT22;50313;52.894;6.492;2022-07-06T15:12:13;19.40;95.30
60309;DHT22;50313;52.894;6.492;2022-07-06T15:14:38;19.30;95.50
60309;DHT22;50313;52.894;6.492;2022-07-06T15:17:04;19.20;95.60
60309;DHT22;50313;52.894;6.492;2022-07-06T15:19:30;19.00;95.90
60309;DHT22;50313;52.894;6.492;2022-07-06T15:21:56;19.10;96.20
60309;DHT22;50313;52.894;6.492;2022-07-06T15:24:22;19.10;96.00
60309;DHT22;50313;52.894;6.492;2022-07-06T15:26:50;19.20;96.00
60309;DHT22;50313;52.894;6.492;2022-07-06T15:29:16;19.20;96.70
60309;DHT22;50313;52.894;6.492;2022-07-06T15:31:42;19.20;96.10
60309;DHT22;50313;52.894;6.492;2022-07-06T15:34:08;19.30;96.80
60309;DHT22;50313;52.894;6.492;2022-07-06T15:36:34;19.30;96.20
60309;DHT22;50313;52.894;6.492;2022-07-06T15:38:59;19.30;94.60
60309;DHT22;50313;52.894;6.492;2022-07-06T15:41:25;19.20;94.80
60309;DHT22;50313;52.894;6.492;2022-07-06T15:43:51;19.20;95.00
60309;DHT22;50313;52.894;6.492;2022-07-06T15:46:17;19.30;95.60
60309;DHT22;50313;52.894;6.492;2022-07-06T15:48:43;19.40;96.20
60309;DHT22;50313;52.894;6.492;2022-07-06T15:51:09;19.30;95.80
60309;DHT22;50313;52.894;6.492;2022-07-06T15:53:35;19.20;96.70
60309;DHT22;50313;52.894;6.492;2022-07-06T15:56:01;19.10;96.50